sensor_id;sensor_type;location;lat;lon;timestamp;temperature;humidity
25512;DHT22;13414;44.534;18.700;2023-08-06T00:01:40;20.10;99.90
25512;DHT22;13414;44.534;18.700;2023-08-06T00:04:07;20.00;99.90
25512;DHT22;13414;44.534;18.700;2023-08-06T00:06:34;20.00;99.90
25512;DHT22;13414;44.534;18.700;2023-08-06T00:09:02;20.00;99.90
25512;DHT22;13414;44.534;18.700;2023-08-06T00:11:30;20.00;99.90
25512;DHT22;13414;44.534;18.700;2023-08-06T00:13:57;20.00;99.90
25512;DHT22;13414;44.534;18.700;2023-08-06T00:16:26;20.00;99.90
25512;DHT22;13414;44.534;18.700;2023-08-06T00:18:54;20.00;99.90
25512;DHT22;13414;44.534;18.700;2023-08-06T00:21:21;20.00;99.90
25512;DHT22;13414;44.534;18.700;2023-08-06T00:23:49;20.00;99.90
25512;DHT22;13414;44.534;18.700;2023-08-06T00:26:18;20.00;99.90
25512;DHT22;13414;44.534;18.700;2023-08-06T00:28:45;20.10;99.90
25512;DHT22;13414;44.534;18.700;2023-08-06T00:31:13;20.10;99.90
25512;DHT22;13414;44.534;18.700;2023-08-06T00:33:42;20.00;99.90
25512;DHT22;13414;44.534;18.700;2023-08-06T00:36:10;20.10;99.90
25512;DHT22;13414;44.534;18.700;2023-08-06T00:38:37;20.10;99.90
25512;DHT22;13414;44.534;18.700;2023-08-06T00:41:04;20.20;99.90
25512;DHT22;13414;44.534;18.700;2023-08-06T00:43:32;20.20;99.90
25512;DHT22;13414;44.534;18.700;2023-08-06T00:46:00;20.20;99.90
25512;DHT22;13414;44.534;18.700;2023-08-06T00:48:27;20.10;99.90
25512;DHT22;13414;44.534;18.700;2023-08-06T00:50:56;20.10;99.90
25512;DHT22;13414;44.534;18.700;2023-08-06T00:53:24;20.00;99.90
25512;DHT22;13414;44.534;18.700;2023-08-06T00:55:52;20.00;99.90
25512;DHT22;13414;44.534;18.700;2023-08-06T00:58:21;20.00;99.90
25512;DHT22;13414;44.534;18.700;2023-08-06T01:00:48;20.00;99.90
25512;DHT22;13414;44.534;18.700;2023-08-06T01:03:15;20.10;99.90
25512;DHT22;13414;44.534;18.700;2023-08-06T01:05:43;20.10;99.90
25512;DHT22;13414;44.534;18.700;2023-08-06T01:08:19;20.20;99.90
25512;DHT22;13414;44.534;18.700;2023-08-06T01:10:59;20.20;99.90
25512;DHT22;13414;44.534;18.700;2023-08-06T01:13:33;20.20;99.90
25512;DHT22;13414;44.534;18.700;2023-08-06T01:16:05;20.30;99.90
25512;DHT22;13414;44.534;18.700;2023-08-06T01:18:33;20.20;99.90
25512;DHT22;13414;44.534;18.700;2023-08-06T01:21:02;20.20;99.90
25512;DHT22;13414;44.534;18.700;2023-08-06T01:23:30;20.20;99.90
25512;DHT22;13414;44.534;18.700;2023-08-06T01:26:02;20.20;99.90
25512;DHT22;13414;44.534;18.700;2023-08-06T01:28:40;20.10;99.90
25512;DHT22;13414;44.534;18.700;2023-08-06T01:31:15;20.10;99.90
25512;DHT22;13414;44.534;18.700;2023-08-06T01:33:47;20.00;99.90
25512;DHT22;13414;44.534;18.700;2023-08-06T01:36:18;20.00;99.90
25512;DHT22;13414;44.534;18.700;2023-08-06T01:38:46;20.00;99.90
25512;DHT22;13414;44.534;18.700;2023-08-06T01:41:13;20.00;99.90
25512;DHT22;13414;44.534;18.700;2023-08-06T01:43:40;20.10;99.90
25512;DHT22;13414;44.534;18.700;2023-08-06T01:46:08;20.00;99.90
25512;DHT22;13414;44.534;18.700;2023-08-06T01:48:35;20.00;99.90
25512;DHT22;13414;44.534;18.700;2023-08-06T01:51:04;20.00;99.90
25512;DHT22;13414;44.534;18.700;2023-08-06T01:53:33;20.00;99.90
25512;DHT22;13414;44.534;18.700;2023-08-06T01:56:01;20.00;99.90
25512;DHT22;13414;44.534;18.700;2023-08-06T01:58:28;20.10;99.90
25512;DHT22;13414;44.534;18.700;2023-08-06T02:00:56;20.10;99.90
25512;DHT22;13414;44.534;18.700;2023-08-06T02:03:24;20.10;99.90
25512;DHT22;13414;44.534;18.700;2023-08-06T02:05:51;20.10;99.90
25512;DHT22;13414;44.534;18.700;2023-08-06T02:08:20;20.10;99.90
25512;DHT22;13414;44.534;18.700;2023-08-06T02:10:49;20.10;99.90
25512;DHT22;13414;44.534;18.700;2023-08-06T02:13:17;20.00;99.90
25512;DHT22;13414;44.534;18.700;2023-08-06T02:15:45;19.90;99.90
25512;DHT22;13414;44.534;18.700;2023-08-06T02:18:13;19.80;99.90
25512;DHT22;13414;44.534;18.700;2023-08-06T02:20:41;19.80;99.90
25512;DHT22;13414;44.534;18.700;2023-08-06T02:23:09;19.80;99.90
25512;DHT22;13414;44.534;18.700;2023-08-06T02:25:37;19.70;99.90
25512;DHT22;13414;44.534;18.700;2023-08-06T02:28:06;19.70;99.90
25512;DHT22;13414;44.534;18.700;2023-08-06T02:30:33;19.70;99.90
25512;DHT22;13414;44.534;18.700;2023-08-06T02:33:00;19.60;99.90
25512;DHT22;13414;44.534;18.700;2023-08-06T02:35:29;19.60;99.90
25512;DHT22;13414;44.534;18.700;2023-08-06T02:37:56;19.50;99.90
25512;DHT22;13414;44.534;18.700;2023-08-06T02:40:25;19.50;99.90
25512;DHT22;13414;44.534;18.700;2023-08-06T02:42:52;19.40;99.90
25512;DHT22;13414;44.534;18.700;2023-08-06T02:45:22;19.40;99.90
25512;DHT22;13414;44.534;18.700;2023-08-06T02:47:49;19.40;99.90
25512;DHT22;13414;44.534;18.700;2023-08-06T02:50:17;19.30;99.90
25512;DHT22;13414;44.534;18.700;2023-08-06T02:52:44;19.40;99.90
25512;DHT22;13414;44.534;18.700;2023-08-06T02:55:12;19.40;99.90
25512;DHT22;13414;44.534;18.700;2023-08-06T02:57:43;19.30;99.90
25512;DHT22;13414;44.534;18.700;2023-08-06T03:00:11;19.30;99.90
25512;DHT22;13414;44.534;18.700;2023-08-06T03:02:41;19.30;99.90
25512;DHT22;13414;44.534;18.700;2023-08-06T03:05:31;19.30;99.90
25512;DHT22;13414;44.534;18.700;2023-08-06T03:07:58;19.30;99.90
25512;DHT22;13414;44.534;18.700;2023-08-06T03:10:28;19.30;99.90
25512;DHT22;13414;44.534;18.700;2023-08-06T03:12:59;19.30;99.90
25512;DHT22;13414;44.534;18.700;2023-08-06T03:15:28;19.40;99.90
25512;DHT22;13414;44.534;18.700;2023-08-06T03:17:57;19.40;99.90
25512;DHT22;13414;44.534;18.700;2023-08-06T03:20:25;19.40;99.90
25512;DHT22;13414;44.534;18.700;2023-08-06T03:22:53;19.40;99.90
25512;DHT22;13414;44.534;18.700;2023-08-06T03:25:20;19.50;99.90
25512;DHT22;13414;44.534;18.700;2023-08-06T03:27:49;19.50;99.90
25512;DHT22;13414;44.534;18.700;2023-08-06T03:30:19;19.50;99.90
25512;DHT22;13414;44.534;18.700;2023-08-06T03:32:48;19.50;99.90
25512;DHT22;13414;44.534;18.700;2023-08-06T03:35:19;19.60;99.90
25512;DHT22;13414;44.534;18.700;2023-08-06T03:37:47;19.50;99.90
25512;DHT22;13414;44.534;18.700;2023-08-06T03:40:16;19.60;99.90
25512;DHT22;13414;44.534;18.700;2023-08-06T03:42:43;19.60;99.90
25512;DHT22;13414;44.534;18.700;2023-08-06T03:45:11;19.60;99.90
25512;DHT22;13414;44.534;18.700;2023-08-06T03:47:41;19.60;99.90
25512;DHT22;13414;44.534;18.700;2023-08-06T03:50:09;19.60;99.90
25512;DHT22;13414;44.534;18.700;2023-08-06T03:52:38;19.60;99.90
25512;DHT22;13414;44.534;18.700;2023-08-06T03:55:06;19.60;99.90
25512;DHT22;13414;44.534;18.700;2023-08-06T03:57:33;19.60;99.90
25512;DHT22;13414;44.534;18.700;2023-08-06T04:00:01;19.60;99.90
25512;DHT22;13414;44.534;18.700;2023-08-06T04:02:40;19.60;99.90
25512;DHT22;13414;44.534;18.700;2023-08-06T04:05:10;19.60;99.90
25512;DHT22;13414;44.534;18.700;2023-08-06T04:07:38;19.60;99.90
25512;DHT22;13414;44.534;18.700;2023-08-06T04:10:06;19.70;99.90
25512;DHT22;13414;44.534;18.700;2023-08-06T04:12:34;19.70;99.90
25512;DHT22;13414;44.534;18.700;2023-08-06T04:15:03;19.70;99.90
25512;DHT22;13414;44.534;18.700;2023-08-06T04:17:31;19.70;99.90
25512;DHT22;13414;44.534;18.700;2023-08-06T04:19:59;19.70;99.90
25512;DHT22;13414;44.534;18.700;2023-08-06T04:22:26;19.70;99.90
25512;DHT22;13414;44.534;18.700;2023-08-06T04:24:55;19.70;99.90
25512;DHT22;13414;44.534;18.700;2023-08-06T04:27:23;19.70;99.90
25512;DHT22;13414;44.534;18.700;2023-08-06T04:29:51;19.80;99.90
25512;DHT22;13414;44.534;18.700;2023-08-06T04:32:19;19.70;99.90
25512;DHT22;13414;44.534;18.700;2023-08-06T04:34:51;19.80;99.90
25512;DHT22;13414;44.534;18.700;2023-08-06T04:37:18;19.80;99.90
25512;DHT22;13414;44.534;18.700;2023-08-06T04:39:46;19.80;99.90
25512;DHT22;13414;44.534;18.700;2023-08-06T04:42:15;19.70;99.90
25512;DHT22;13414;44.534;18.700;2023-08-06T04:44:42;19.70;99.90
25512;DHT22;13414;44.534;18.700;2023-08-06T04:47:09;19.80;99.90
25512;DHT22;13414;44.534;18.700;2023-08-06T04:49:36;19.90;99.90
25512;DHT22;13414;44.534;18.700;2023-08-06T04:52:05;19.90;99.90
25512;DHT22;13414;44.534;18.700;2023-08-06T04:54:32;20.00;99.90
25512;DHT22;13414;44.534;18.700;2023-08-06T04:56:59;20.10;99.90
25512;DHT22;13414;44.534;18.700;2023-08-06T04:59:28;20.20;99.90
25512;DHT22;13414;44.534;18.700;2023-08-06T05:01:56;20.20;99.90
25512;DHT22;13414;44.534;18.700;2023-08-06T05:04:23;20.40;99.90
25512;DHT22;13414;44.534;18.700;2023-08-06T05:06:50;20.40;99.90
25512;DHT22;13414;44.534;18.700;2023-08-06T05:09:18;20.60;99.90
25512;DHT22;13414;44.534;18.700;2023-08-06T05:11:46;20.80;99.90
25512;DHT22;13414;44.534;18.700;2023-08-06T05:14:13;20.90;99.90
25512;DHT22;13414;44.534;18.700;2023-08-06T05:16:42;20.90;99.90
25512;DHT22;13414;44.534;18.700;2023-08-06T05:19:10;20.90;99.90
25512;DHT22;13414;44.534;18.700;2023-08-06T05:21:37;20.90;99.90
25512;DHT22;13414;44.534;18.700;2023-08-06T05:24:04;20.90;99.90
25512;DHT22;13414;44.534;18.700;2023-08-06T05:26:32;20.90;99.90
25512;DHT22;13414;44.534;18.700;2023-08-06T05:28:59;20.90;99.90
25512;DHT22;13414;44.534;18.700;2023-08-06T05:31:26;21.00;99.90
25512;DHT22;13414;44.534;18.700;2023-08-06T05:33:56;21.00;99.90
25512;DHT22;13414;44.534;18.700;2023-08-06T05:36:23;21.10;99.90
25512;DHT22;13414;44.534;18.700;2023-08-06T05:38:51;21.10;99.90
25512;DHT22;13414;44.534;18.700;2023-08-06T05:41:18;21.20;99.90
25512;DHT22;13414;44.534;18.700;2023-08-06T05:43:45;21.30;99.90
25512;DHT22;13414;44.534;18.700;2023-08-06T05:46:13;21.40;99.90
25512;DHT22;13414;44.534;18.700;2023-08-06T05:48:40;21.50;99.90
25512;DHT22;13414;44.534;18.700;2023-08-06T05:51:09;21.70;99.90
25512;DHT22;13414;44.534;18.700;2023-08-06T05:53:38;21.70;99.90
25512;DHT22;13414;44.534;18.700;2023-08-06T05:56:06;21.80;99.90
25512;DHT22;13414;44.534;18.700;2023-08-06T05:58:33;21.80;99.90
25512;DHT22;13414;44.534;18.700;2023-08-06T06:01:01;21.90;99.90
25512;DHT22;13414;44.534;18.700;2023-08-06T06:03:28;21.80;99.90
25512;DHT22;13414;44.534;18.700;2023-08-06T06:05:55;21.70;99.90
25512;DHT22;13414;44.534;18.700;2023-08-06T06:08:24;21.70;99.90
25512;DHT22;13414;44.534;18.700;2023-08-06T06:10:51;21.70;99.90
25512;DHT22;13414;44.534;18.700;2023-08-06T06:13:36;21.70;99.90
25512;DHT22;13414;44.534;18.700;2023-08-06T06:16:04;21.70;99.90
25512;DHT22;13414;44.534;18.700;2023-08-06T06:18:32;21.60;99.90
25512;DHT22;13414;44.534;18.700;2023-08-06T06:20:59;21.60;99.90
25512;DHT22;13414;44.534;18.700;2023-08-06T06:23:27;21.70;99.90
25512;DHT22;13414;44.534;18.700;2023-08-06T06:25:55;21.90;99.90
25512;DHT22;13414;44.534;18.700;2023-08-06T06:28:22;21.80;99.90
25512;DHT22;13414;44.534;18.700;2023-08-06T06:30:51;21.90;99.90
25512;DHT22;13414;44.534;18.700;2023-08-06T06:33:19;22.00;99.90
25512;DHT22;13414;44.534;18.700;2023-08-06T06:35:46;22.30;99.90
25512;DHT22;13414;44.534;18.700;2023-08-06T06:38:13;22.60;99.90
25512;DHT22;13414;44.534;18.700;2023-08-06T06:40:55;22.80;99.90
25512;DHT22;13414;44.534;18.700;2023-08-06T06:43:22;23.10;99.90
25512;DHT22;13414;44.534;18.700;2023-08-06T06:45:56;23.20;99.90
25512;DHT22;13414;44.534;18.700;2023-08-06T06:48:26;23.50;99.90
25512;DHT22;13414;44.534;18.700;2023-08-06T06:50:54;23.60;99.90
25512;DHT22;13414;44.534;18.700;2023-08-06T06:53:21;23.80;99.90
25512;DHT22;13414;44.534;18.700;2023-08-06T06:55:54;23.80;99.90
25512;DHT22;13414;44.534;18.700;2023-08-06T06:58:22;23.50;99.90
25512;DHT22;13414;44.534;18.700;2023-08-06T07:00:49;23.50;99.90
25512;DHT22;13414;44.534;18.700;2023-08-06T07:03:17;23.40;99.90
25512;DHT22;13414;44.534;18.700;2023-08-06T07:05:44;23.50;99.90
25512;DHT22;13414;44.534;18.700;2023-08-06T07:08:12;23.90;99.90
25512;DHT22;13414;44.534;18.700;2023-08-06T07:10:40;24.60;99.90
25512;DHT22;13414;44.534;18.700;2023-08-06T07:13:09;24.70;99.90
25512;DHT22;13414;44.534;18.700;2023-08-06T07:15:37;24.90;99.90
25512;DHT22;13414;44.534;18.700;2023-08-06T07:18:04;25.10;99.90
25512;DHT22;13414;44.534;18.700;2023-08-06T07:20:35;25.10;99.90
25512;DHT22;13414;44.534;18.700;2023-08-06T07:23:02;25.10;99.90
25512;DHT22;13414;44.534;18.700;2023-08-06T07:25:29;25.00;99.90
25512;DHT22;13414;44.534;18.700;2023-08-06T07:27:56;25.10;99.90
25512;DHT22;13414;44.534;18.700;2023-08-06T07:30:25;25.40;99.90
25512;DHT22;13414;44.534;18.700;2023-08-06T07:32:54;25.70;99.90
25512;DHT22;13414;44.534;18.700;2023-08-06T07:35:30;25.70;99.90
25512;DHT22;13414;44.534;18.700;2023-08-06T07:38:01;25.90;99.90
25512;DHT22;13414;44.534;18.700;2023-08-06T07:40:29;26.00;99.90
25512;DHT22;13414;44.534;18.700;2023-08-06T07:42:56;25.90;99.90
25512;DHT22;13414;44.534;18.700;2023-08-06T07:45:25;25.50;99.90
25512;DHT22;13414;44.534;18.700;2023-08-06T07:47:54;25.70;99.90
25512;DHT22;13414;44.534;18.700;2023-08-06T07:50:26;26.20;99.90
25512;DHT22;13414;44.534;18.700;2023-08-06T07:52:54;26.70;99.90
25512;DHT22;13414;44.534;18.700;2023-08-06T07:55:21;26.80;99.90
25512;DHT22;13414;44.534;18.700;2023-08-06T07:57:48;26.70;99.90
25512;DHT22;13414;44.534;18.700;2023-08-06T08:00:17;26.60;99.90
25512;DHT22;13414;44.534;18.700;2023-08-06T08:02:49;26.50;99.90
25512;DHT22;13414;44.534;18.700;2023-08-06T08:05:16;26.30;99.90
25512;DHT22;13414;44.534;18.700;2023-08-06T08:07:43;26.30;99.90
25512;DHT22;13414;44.534;18.700;2023-08-06T08:10:11;26.40;99.90
25512;DHT22;13414;44.534;18.700;2023-08-06T08:12:38;26.60;99.90
25512;DHT22;13414;44.534;18.700;2023-08-06T08:15:06;26.80;99.90
25512;DHT22;13414;44.534;18.700;2023-08-06T08:17:41;26.70;99.90
25512;DHT22;13414;44.534;18.700;2023-08-06T08:20:11;26.30;99.90
25512;DHT22;13414;44.534;18.700;2023-08-06T08:22:38;26.20;99.90
25512;DHT22;13414;44.534;18.700;2023-08-06T08:25:06;26.10;99.90
25512;DHT22;13414;44.534;18.700;2023-08-06T08:27:33;26.00;99.90
25512;DHT22;13414;44.534;18.700;2023-08-06T08:30:01;26.20;99.90
25512;DHT22;13414;44.534;18.700;2023-08-06T08:32:29;26.50;99.90
25512;DHT22;13414;44.534;18.700;2023-08-06T08:34:56;26.80;99.90
25512;DHT22;13414;44.534;18.700;2023-08-06T08:37:30;27.00;99.90
25512;DHT22;13414;44.534;18.700;2023-08-06T08:39:58;27.00;99.90
25512;DHT22;13414;44.534;18.700;2023-08-06T08:42:27;27.10;99.90
25512;DHT22;13414;44.534;18.700;2023-08-06T08:44:55;27.10;99.90
25512;DHT22;13414;44.534;18.700;2023-08-06T08:47:24;27.10;99.90
25512;DHT22;13414;44.534;18.700;2023-08-06T08:49:54;27.10;99.90
25512;DHT22;13414;44.534;18.700;2023-08-06T08:52:22;27.30;99.90
25512;DHT22;13414;44.534;18.700;2023-08-06T08:54:51;27.40;99.90
25512;DHT22;13414;44.534;18.700;2023-08-06T08:57:20;27.60;99.90
25512;DHT22;13414;44.534;18.700;2023-08-06T08:59:48;27.70;99.90
25512;DHT22;13414;44.534;18.700;2023-08-06T09:02:15;27.60;99.90
25512;DHT22;13414;44.534;18.700;2023-08-06T09:04:48;27.20;99.90
25512;DHT22;13414;44.534;18.700;2023-08-06T09:07:18;27.20;99.90
25512;DHT22;13414;44.534;18.700;2023-08-06T09:09:50;27.10;99.90
25512;DHT22;13414;44.534;18.700;2023-08-06T09:12:19;27.40;99.90
25512;DHT22;13414;44.534;18.700;2023-08-06T09:14:47;27.50;99.90
25512;DHT22;13414;44.534;18.700;2023-08-06T09:17:14;27.60;99.90
25512;DHT22;13414;44.534;18.700;2023-08-06T09:19:46;28.00;99.90
25512;DHT22;13414;44.534;18.700;2023-08-06T09:22:15;27.90;99.90
25512;DHT22;13414;44.534;18.700;2023-08-06T09:24:43;28.00;99.90
25512;DHT22;13414;44.534;18.700;2023-08-06T09:27:14;28.00;99.90
25512;DHT22;13414;44.534;18.700;2023-08-06T09:29:42;27.10;99.90
25512;DHT22;13414;44.534;18.700;2023-08-06T09:32:11;26.80;99.90
25512;DHT22;13414;44.534;18.700;2023-08-06T09:34:39;26.80;99.90
25512;DHT22;13414;44.534;18.700;2023-08-06T09:37:09;26.90;99.90
25512;DHT22;13414;44.534;18.700;2023-08-06T09:39:38;26.80;99.90
25512;DHT22;13414;44.534;18.700;2023-08-06T09:42:06;26.50;99.90
25512;DHT22;13414;44.534;18.700;2023-08-06T09:44:35;26.30;99.90
25512;DHT22;13414;44.534;18.700;2023-08-06T09:47:03;26.50;99.90
25512;DHT22;13414;44.534;18.700;2023-08-06T09:49:41;26.90;99.90
25512;DHT22;13414;44.534;18.700;2023-08-06T09:52:12;27.30;99.90
25512;DHT22;13414;44.534;18.700;2023-08-06T09:54:40;27.40;99.90
25512;DHT22;13414;44.534;18.700;2023-08-06T09:57:08;27.40;99.90
25512;DHT22;13414;44.534;18.700;2023-08-06T09:59:37;27.20;99.90
25512;DHT22;13414;44.534;18.700;2023-08-06T10:02:11;26.80;99.90
25512;DHT22;13414;44.534;18.700;2023-08-06T10:04:39;26.50;99.90
25512;DHT22;13414;44.534;18.700;2023-08-06T10:07:06;26.40;99.90
25512;DHT22;13414;44.534;18.700;2023-08-06T10:09:34;26.50;99.90
25512;DHT22;13414;44.534;18.700;2023-08-06T10:12:01;26.70;99.90
25512;DHT22;13414;44.534;18.700;2023-08-06T10:14:30;27.10;99.90
25512;DHT22;13414;44.534;18.700;2023-08-06T10:17:00;27.50;99.90
25512;DHT22;13414;44.534;18.700;2023-08-06T10:19:29;27.60;99.90
25512;DHT22;13414;44.534;18.700;2023-08-06T10:22:11;27.90;99.90
25512;DHT22;13414;44.534;18.700;2023-08-06T10:24:52;28.10;99.90
25512;DHT22;13414;44.534;18.700;2023-08-06T10:27:27;28.50;99.90
25512;DHT22;13414;44.534;18.700;2023-08-06T10:29:55;28.70;99.90
25512;DHT22;13414;44.534;18.700;2023-08-06T10:32:46;28.60;99.90
25512;DHT22;13414;44.534;18.700;2023-08-06T10:35:28;28.30;99.90
25512;DHT22;13414;44.534;18.700;2023-08-06T10:37:59;28.30;99.90
25512;DHT22;13414;44.534;18.700;2023-08-06T10:40:26;28.60;99.90
25512;DHT22;13414;44.534;18.700;2023-08-06T10:42:59;28.60;99.90
25512;DHT22;13414;44.534;18.700;2023-08-06T10:45:27;28.80;99.90
25512;DHT22;13414;44.534;18.700;2023-08-06T10:47:57;28.70;99.90
25512;DHT22;13414;44.534;18.700;2023-08-06T10:50:25;28.80;99.90
25512;DHT22;13414;44.534;18.700;2023-08-06T10:52:53;29.00;99.90
25512;DHT22;13414;44.534;18.700;2023-08-06T10:55:24;29.00;99.90
25512;DHT22;13414;44.534;18.700;2023-08-06T10:57:53;29.30;99.90
25512;DHT22;13414;44.534;18.700;2023-08-06T11:00:21;29.40;99.90
25512;DHT22;13414;44.534;18.700;2023-08-06T11:02:50;29.50;99.90
25512;DHT22;13414;44.534;18.700;2023-08-06T11:05:18;29.50;99.90
25512;DHT22;13414;44.534;18.700;2023-08-06T11:07:46;29.40;99.90
25512;DHT22;13414;44.534;18.700;2023-08-06T11:10:15;29.40;99.90
25512;DHT22;13414;44.534;18.700;2023-08-06T11:12:43;29.50;99.90
25512;DHT22;13414;44.534;18.700;2023-08-06T11:15:11;29.20;99.90
25512;DHT22;13414;44.534;18.700;2023-08-06T11:17:42;28.90;99.90
25512;DHT22;13414;44.534;18.700;2023-08-06T11:20:09;28.50;99.90
25512;DHT22;13414;44.534;18.700;2023-08-06T11:22:48;28.00;99.90
25512;DHT22;13414;44.534;18.700;2023-08-06T11:25:20;27.30;99.90
25512;DHT22;13414;44.534;18.700;2023-08-06T11:27:48;26.80;99.90
25512;DHT22;13414;44.534;18.700;2023-08-06T11:30:16;26.50;99.90
25512;DHT22;13414;44.534;18.700;2023-08-06T11:32:49;26.10;99.90
25512;DHT22;13414;44.534;18.700;2023-08-06T11:35:20;25.80;99.90
25512;DHT22;13414;44.534;18.700;2023-08-06T11:37:49;25.60;99.90
25512;DHT22;13414;44.534;18.700;2023-08-06T11:40:17;25.40;99.90
25512;DHT22;13414;44.534;18.700;2023-08-06T11:42:46;25.00;99.90
25512;DHT22;13414;44.534;18.700;2023-08-06T11:45:15;24.60;99.90
25512;DHT22;13414;44.534;18.700;2023-08-06T11:47:50;24.40;99.90
25512;DHT22;13414;44.534;18.700;2023-08-06T11:50:22;24.30;99.90
25512;DHT22;13414;44.534;18.700;2023-08-06T11:52:56;24.10;99.90
25512;DHT22;13414;44.534;18.700;2023-08-06T11:55:25;24.00;99.90
25512;DHT22;13414;44.534;18.700;2023-08-06T11:57:54;23.80;99.90
25512;DHT22;13414;44.534;18.700;2023-08-06T12:00:25;23.80;99.90
25512;DHT22;13414;44.534;18.700;2023-08-06T12:02:53;23.80;99.90
25512;DHT22;13414;44.534;18.700;2023-08-06T12:05:22;23.70;99.90
25512;DHT22;13414;44.534;18.700;2023-08-06T12:07:54;23.60;99.90
25512;DHT22;13414;44.534;18.700;2023-08-06T12:10:24;23.20;99.90
25512;DHT22;13414;44.534;18.700;2023-08-06T12:12:53;20.90;99.90
25512;DHT22;13414;44.534;18.700;2023-08-06T12:15:23;19.70;99.90
25512;DHT22;13414;44.534;18.700;2023-08-06T12:17:52;19.10;99.90
25512;DHT22;13414;44.534;18.700;2023-08-06T12:20:19;19.00;99.90
25512;DHT22;13414;44.534;18.700;2023-08-06T12:23:17;19.00;99.90
25512;DHT22;13414;44.534;18.700;2023-08-06T12:25:44;19.10;99.90
25512;DHT22;13414;44.534;18.700;2023-08-06T12:28:12;19.10;99.90
25512;DHT22;13414;44.534;18.700;2023-08-06T12:30:39;19.10;99.90
25512;DHT22;13414;44.534;18.700;2023-08-06T12:33:10;19.10;99.90
25512;DHT22;13414;44.534;18.700;2023-08-06T12:35:37;19.00;99.90
25512;DHT22;13414;44.534;18.700;2023-08-06T12:38:05;19.00;99.90
25512;DHT22;13414;44.534;18.700;2023-08-06T12:40:36;19.00;99.90
25512;DHT22;13414;44.534;18.700;2023-08-06T12:43:03;19.00;99.90
25512;DHT22;13414;44.534;18.700;2023-08-06T12:45:30;19.00;99.90
25512;DHT22;13414;44.534;18.700;2023-08-06T12:47:57;19.10;99.90
25512;DHT22;13414;44.534;18.700;2023-08-06T12:50:25;19.30;99.90
25512;DHT22;13414;44.534;18.700;2023-08-06T12:52:52;19.40;99.90
25512;DHT22;13414;44.534;18.700;2023-08-06T12:55:19;19.50;99.90
25512;DHT22;13414;44.534;18.700;2023-08-06T12:57:48;19.60;99.90
25512;DHT22;13414;44.534;18.700;2023-08-06T13:00:17;19.50;99.90
25512;DHT22;13414;44.534;18.700;2023-08-06T13:02:44;19.50;99.90
25512;DHT22;13414;44.534;18.700;2023-08-06T13:05:11;19.70;99.90
25512;DHT22;13414;44.534;18.700;2023-08-06T13:07:38;19.80;99.90
25512;DHT22;13414;44.534;18.700;2023-08-06T13:10:07;20.00;99.90
25512;DHT22;13414;44.534;18.700;2023-08-06T13:12:34;20.40;99.90
25512;DHT22;13414;44.534;18.700;2023-08-06T13:15:03;20.80;99.90
25512;DHT22;13414;44.534;18.700;2023-08-06T13:17:31;21.20;99.90
25512;DHT22;13414;44.534;18.700;2023-08-06T13:19:58;21.60;99.90
25512;DHT22;13414;44.534;18.700;2023-08-06T13:22:26;22.10;99.90
25512;DHT22;13414;44.534;18.700;2023-08-06T13:24:53;22.40;99.90
25512;DHT22;13414;44.534;18.700;2023-08-06T13:27:20;22.50;99.90
25512;DHT22;13414;44.534;18.700;2023-08-06T13:29:48;22.50;99.90
25512;DHT22;13414;44.534;18.700;2023-08-06T13:32:19;22.30;99.90
25512;DHT22;13414;44.534;18.700;2023-08-06T13:34:47;21.90;99.90
25512;DHT22;13414;44.534;18.700;2023-08-06T13:37:14;21.40;99.90
25512;DHT22;13414;44.534;18.700;2023-08-06T13:39:41;21.00;99.90
25512;DHT22;13414;44.534;18.700;2023-08-06T13:42:08;20.80;99.90
25512;DHT22;13414;44.534;18.700;2023-08-06T13:44:36;20.70;99.90
25512;DHT22;13414;44.534;18.700;2023-08-06T13:47:03;20.70;99.90
25512;DHT22;13414;44.534;18.700;2023-08-06T13:49:32;20.70;99.90
25512;DHT22;13414;44.534;18.700;2023-08-06T13:52:06;20.80;99.90
25512;DHT22;13414;44.534;18.700;2023-08-06T13:54:33;20.90;99.90
25512;DHT22;13414;44.534;18.700;2023-08-06T13:57:01;21.00;99.90
25512;DHT22;13414;44.534;18.700;2023-08-06T13:59:29;21.10;99.90
25512;DHT22;13414;44.534;18.700;2023-08-06T14:01:57;21.00;99.90
25512;DHT22;13414;44.534;18.700;2023-08-06T14:04:25;21.10;99.90
25512;DHT22;13414;44.534;18.700;2023-08-06T14:06:54;21.00;99.90
25512;DHT22;13414;44.534;18.700;2023-08-06T14:09:22;20.90;99.90
25512;DHT22;13414;44.534;18.700;2023-08-06T14:11:50;20.80;99.90
25512;DHT22;13414;44.534;18.700;2023-08-06T14:14:17;20.80;99.90
25512;DHT22;13414;44.534;18.700;2023-08-06T14:16:44;20.70;99.90
25512;DHT22;13414;44.534;18.700;2023-08-06T14:19:13;20.70;99.90
25512;DHT22;13414;44.534;18.700;2023-08-06T14:21:40;20.70;99.90
25512;DHT22;13414;44.534;18.700;2023-08-06T14:24:10;20.80;99.90
25512;DHT22;13414;44.534;18.700;2023-08-06T14:26:39;20.90;99.90
25512;DHT22;13414;44.534;18.700;2023-08-06T14:29:06;21.20;99.90
25512;DHT22;13414;44.534;18.700;2023-08-06T14:31:34;21.60;99.90
25512;DHT22;13414;44.534;18.700;2023-08-06T14:34:01;22.00;99.90
25512;DHT22;13414;44.534;18.700;2023-08-06T14:36:29;22.20;99.90
25512;DHT22;13414;44.534;18.700;2023-08-06T14:38:56;22.20;1.00
25512;DHT22;13414;44.534;18.700;2023-08-06T14:41:25;22.10;1.00
25512;DHT22;13414;44.534;18.700;2023-08-06T14:43:53;22.00;1.00
25512;DHT22;13414;44.534;18.700;2023-08-06T14:46:21;22.00;1.00
25512;DHT22;13414;44.534;18.700;2023-08-06T14:48:48;22.10;1.00
25512;DHT22;13414;44.534;18.700;2023-08-06T14:51:16;22.00;1.00
25512;DHT22;13414;44.534;18.700;2023-08-06T14:53:45;21.90;99.90
25512;DHT22;13414;44.534;18.700;2023-08-06T14:56:12;21.70;99.90
25512;DHT22;13414;44.534;18.700;2023-08-06T14:58:41;21.50;99.90
25512;DHT22;13414;44.534;18.700;2023-08-06T15:01:08;21.30;99.90
25512;DHT22;13414;44.534;18.700;2023-08-06T15:03:35;21.20;99.90
25512;DHT22;13414;44.534;18.700;2023-08-06T15:06:03;21.00;99.90
25512;DHT22;13414;44.534;18.700;2023-08-06T15:08:33;20.90;99.90
25512;DHT22;13414;44.534;18.700;2023-08-06T15:11:02;20.80;99.90
25512;DHT22;13414;44.534;18.700;2023-08-06T15:13:31;20.30;99.90
25512;DHT22;13414;44.534;18.700;2023-08-06T15:15:59;19.80;99.90
25512;DHT22;13414;44.534;18.700;2023-08-06T15:18:27;19.60;99.90
25512;DHT22;13414;44.534;18.700;2023-08-06T15:20:54;19.30;99.90
25512;DHT22;13414;44.534;18.700;2023-08-06T15:23:23;19.40;99.90
25512;DHT22;13414;44.534;18.700;2023-08-06T15:25:50;19.60;99.90
25512;DHT22;13414;44.534;18.700;2023-08-06T15:28:19;19.70;99.90